GLO1349 SBVT-SBSP
Flight info
| Callsign | GLO1349 |
|---|---|
| Flight time | 1h 20m |
| Altitude | 34000 |
| Route | BUVI3A MABSI UZ44 ADA UZ45 IBDAL |
| Aircraft | B738/M-SDE2E3FGHIRWXY/LB1 |
Departure
| Time | 2026-05-01 13:35 |
|---|---|
| Airport | Eurico de Aguiar Salles International Airport (SBVT) |
Arrival
| Time | 2026-05-01 14:56 |
|---|---|
| Airport | Congonhas–Deputado Freitas Nobre Airport (SBSP) |
| Time | Latitude | Longitude | Altitude | Speed | Heading |
|---|---|---|---|---|---|
| 2026-05-01 13:00 | -20.26572 | -40.28161 | 17 ft | 0 kts | 263° |
| 2026-05-01 13:29 | -20.26566 | -40.28111 | 20 ft | 4 kts | 262° |
| 2026-05-01 13:30 | -20.26527 | -40.28033 | 17 ft | 0 kts | 172° |
| 2026-05-01 13:33 | -20.26638 | -40.28018 | 17 ft | 11 kts | 170° |
| 2026-05-01 13:33 | -20.26702 | -40.27945 | 18 ft | 4 kts | 43° |
| 2026-05-01 13:34 | -20.26699 | -40.27942 | 18 ft | 1 kts | 37° |
| 2026-05-01 13:34 | -20.26610 | -40.27900 | 19 ft | 13 kts | 36° |
| 2026-05-01 13:35 | -20.26342 | -40.27885 | 17 ft | 63 kts | 352° |
| 2026-05-01 13:35 | -20.25663 | -40.27986 | 21 ft | 132 kts | 352° |
| 2026-05-01 13:35 | -20.23395 | -40.28300 | 1009 ft | 173 kts | 3° |
| 2026-05-01 13:36 | -20.22244 | -40.27773 | 1373 ft | 200 kts | 42° |
| 2026-05-01 13:36 | -20.21194 | -40.26708 | 1805 ft | 213 kts | 43° |
| 2026-05-01 13:36 | -20.18914 | -40.24603 | 3072 ft | 221 kts | 41° |
| 2026-05-01 13:37 | -20.17739 | -40.23561 | 3885 ft | 220 kts | 41° |
| 2026-05-01 13:37 | -20.16589 | -40.22469 | 4561 ft | 227 kts | 52° |
| 2026-05-01 13:37 | -20.15958 | -40.20863 | 4803 ft | 252 kts | 86° |
| 2026-05-01 13:37 | -20.16305 | -40.19008 | 5332 ft | 264 kts | 117° |
| 2026-05-01 13:38 | -20.19249 | -40.16722 | 6805 ft | 278 kts | 167° |
| 2026-05-01 13:38 | -20.21181 | -40.16481 | 7534 ft | 282 kts | 173° |
| 2026-05-01 13:38 | -20.23122 | -40.16334 | 8238 ft | 285 kts | 174° |
| 2026-05-01 13:39 | -20.25112 | -40.16196 | 8972 ft | 288 kts | 174° |
| 2026-05-01 13:39 | -20.27119 | -40.16050 | 9706 ft | 291 kts | 174° |
| 2026-05-01 13:39 | -20.29147 | -40.15895 | 10379 ft | 295 kts | 173° |
| 2026-05-01 13:39 | -20.31261 | -40.15725 | 10594 ft | 316 kts | 174° |
| 2026-05-01 13:40 | -20.33489 | -40.15543 | 11107 ft | 320 kts | 174° |
| 2026-05-01 13:40 | -20.35689 | -40.15362 | 11983 ft | 316 kts | 174° |
| 2026-05-01 13:40 | -20.37891 | -40.15178 | 12641 ft | 320 kts | 174° |
| 2026-05-01 13:40 | -20.40128 | -40.14989 | 13256 ft | 325 kts | 174° |
| 2026-05-01 13:41 | -20.42403 | -40.14811 | 13885 ft | 330 kts | 177° |
| 2026-05-01 13:41 | -20.44691 | -40.14764 | 14448 ft | 335 kts | 179° |
| 2026-05-01 13:41 | -20.47030 | -40.14765 | 15080 ft | 337 kts | 180° |
| 2026-05-01 13:41 | -20.49381 | -40.14766 | 15741 ft | 339 kts | 182° |
| 2026-05-01 13:42 | -20.51683 | -40.15274 | 16326 ft | 341 kts | 206° |
| 2026-05-01 13:42 | -20.53585 | -40.16750 | 16993 ft | 340 kts | 227° |
| 2026-05-01 13:42 | -20.55205 | -40.18599 | 17645 ft | 342 kts | 227° |
| 2026-05-01 13:42 | -20.56855 | -40.20452 | 18246 ft | 346 kts | 227° |
| 2026-05-01 13:43 | -20.58507 | -40.22287 | 18812 ft | 349 kts | 226° |
| 2026-05-01 13:43 | -20.60199 | -40.24149 | 19351 ft | 351 kts | 226° |
| 2026-05-01 13:43 | -20.61907 | -40.26016 | 19897 ft | 353 kts | 226° |
| 2026-05-01 13:43 | -20.63631 | -40.27895 | 20433 ft | 356 kts | 226° |
| 2026-05-01 13:44 | -20.65369 | -40.29785 | 20998 ft | 357 kts | 226° |
| 2026-05-01 13:44 | -20.67116 | -40.31682 | 21541 ft | 360 kts | 226° |
| 2026-05-01 13:44 | -20.68878 | -40.33596 | 22061 ft | 363 kts | 226° |
| 2026-05-01 13:44 | -20.70651 | -40.35521 | 22574 ft | 365 kts | 226° |
| 2026-05-01 13:45 | -20.72415 | -40.37437 | 23096 ft | 368 kts | 226° |
| 2026-05-01 13:45 | -20.74213 | -40.39391 | 23618 ft | 370 kts | 226° |
| 2026-05-01 13:45 | -20.76024 | -40.41361 | 24058 ft | 373 kts | 226° |
| 2026-05-01 13:45 | -20.77847 | -40.43343 | 24496 ft | 374 kts | 226° |
| 2026-05-01 13:46 | -20.79674 | -40.45330 | 24944 ft | 376 kts | 226° |
| 2026-05-01 13:46 | -20.81511 | -40.47330 | 25384 ft | 378 kts | 226° |
| 2026-05-01 13:46 | -20.83357 | -40.49340 | 25822 ft | 379 kts | 226° |
| 2026-05-01 13:46 | -20.85207 | -40.51356 | 26291 ft | 380 kts | 226° |
| 2026-05-01 13:47 | -20.87062 | -40.53376 | 26735 ft | 382 kts | 226° |
| 2026-05-01 13:47 | -20.88901 | -40.55381 | 27141 ft | 384 kts | 226° |
| 2026-05-01 13:47 | -20.90817 | -40.57374 | 27538 ft | 386 kts | 221° |
| 2026-05-01 13:47 | -20.92929 | -40.59171 | 27945 ft | 389 kts | 218° |
| 2026-05-01 13:48 | -20.95098 | -40.60908 | 28355 ft | 390 kts | 217° |
| 2026-05-01 13:48 | -20.97283 | -40.62643 | 28761 ft | 392 kts | 217° |
| 2026-05-01 13:48 | -20.99477 | -40.64397 | 29147 ft | 394 kts | 218° |
| 2026-05-01 13:48 | -21.01673 | -40.66169 | 29532 ft | 396 kts | 218° |
| 2026-05-01 13:49 | -21.03873 | -40.67958 | 29935 ft | 398 kts | 218° |
| 2026-05-01 13:49 | -21.06074 | -40.69756 | 30336 ft | 398 kts | 218° |
| 2026-05-01 13:49 | -21.08279 | -40.71561 | 30641 ft | 401 kts | 218° |
| 2026-05-01 13:49 | -21.10472 | -40.73355 | 30927 ft | 403 kts | 218° |
| 2026-05-01 13:50 | -21.12705 | -40.75183 | 31238 ft | 405 kts | 218° |
| 2026-05-01 13:50 | -21.14945 | -40.77018 | 31554 ft | 406 kts | 219° |
| 2026-05-01 13:50 | -21.17193 | -40.78862 | 31859 ft | 408 kts | 219° |
| 2026-05-01 13:50 | -21.19448 | -40.80713 | 32142 ft | 409 kts | 219° |
| 2026-05-01 13:51 | -21.21714 | -40.82574 | 32416 ft | 411 kts | 219° |
| 2026-05-01 13:51 | -21.23988 | -40.84443 | 32710 ft | 413 kts | 219° |
| 2026-05-01 13:51 | -21.26268 | -40.86318 | 33011 ft | 413 kts | 219° |
| 2026-05-01 13:51 | -21.28553 | -40.88197 | 33284 ft | 415 kts | 219° |
| 2026-05-01 13:52 | -21.30815 | -40.90058 | 33529 ft | 417 kts | 219° |
| 2026-05-01 13:52 | -21.33119 | -40.91955 | 33775 ft | 418 kts | 219° |
| 2026-05-01 13:52 | -21.35434 | -40.93861 | 34034 ft | 420 kts | 219° |
| 2026-05-01 13:52 | -21.37753 | -40.95771 | 34155 ft | 423 kts | 219° |
| 2026-05-01 13:53 | -21.40103 | -40.97708 | 34161 ft | 428 kts | 219° |
| 2026-05-01 13:53 | -21.47274 | -41.03623 | 34161 ft | 435 kts | 219° |
| 2026-05-01 13:54 | -21.52039 | -41.07559 | 34159 ft | 435 kts | 219° |
| 2026-05-01 13:54 | -21.56835 | -41.11524 | 34155 ft | 435 kts | 219° |
| 2026-05-01 13:55 | -21.61627 | -41.15489 | 34156 ft | 434 kts | 219° |
| 2026-05-01 13:55 | -21.66405 | -41.19447 | 34164 ft | 433 kts | 219° |
| 2026-05-01 13:56 | -21.71146 | -41.23377 | 34156 ft | 433 kts | 219° |
| 2026-05-01 13:56 | -21.75895 | -41.27333 | 34157 ft | 431 kts | 220° |
| 2026-05-01 13:57 | -21.80614 | -41.31309 | 34157 ft | 430 kts | 220° |
| 2026-05-01 13:57 | -21.85323 | -41.35282 | 34160 ft | 429 kts | 220° |
| 2026-05-01 13:58 | -21.90022 | -41.39245 | 34156 ft | 429 kts | 220° |
| 2026-05-01 13:58 | -21.94685 | -41.43181 | 34157 ft | 428 kts | 220° |
| 2026-05-01 13:59 | -21.99375 | -41.47142 | 34159 ft | 428 kts | 220° |
| 2026-05-01 13:59 | -22.04061 | -41.51102 | 34159 ft | 428 kts | 220° |
| 2026-05-01 14:00 | -22.08742 | -41.55069 | 34164 ft | 428 kts | 220° |
| 2026-05-01 14:00 | -22.13391 | -41.59018 | 34161 ft | 428 kts | 220° |
| 2026-05-01 14:01 | -22.18076 | -41.62999 | 34162 ft | 429 kts | 220° |
| 2026-05-01 14:01 | -22.22765 | -41.66987 | 34171 ft | 429 kts | 220° |
| 2026-05-01 14:02 | -22.27459 | -41.70983 | 34159 ft | 430 kts | 220° |
| 2026-05-01 14:02 | -22.32122 | -41.74956 | 34158 ft | 430 kts | 220° |
| 2026-05-01 14:03 | -22.36948 | -41.78785 | 34152 ft | 431 kts | 215° |
| 2026-05-01 14:03 | -22.42042 | -41.82214 | 34170 ft | 432 kts | 214° |
| 2026-05-01 14:04 | -22.47151 | -41.85632 | 34161 ft | 432 kts | 215° |
| 2026-05-01 14:04 | -22.52228 | -41.89089 | 34171 ft | 431 kts | 215° |
| 2026-05-01 14:05 | -22.57256 | -41.92538 | 34174 ft | 431 kts | 215° |
| 2026-05-01 14:05 | -22.62312 | -41.96010 | 34190 ft | 430 kts | 215° |
| 2026-05-01 14:06 | -22.67368 | -41.99483 | 34170 ft | 430 kts | 216° |
| 2026-05-01 14:06 | -22.72319 | -42.03026 | 34186 ft | 429 kts | 217° |
| 2026-05-01 14:07 | -22.77280 | -42.06613 | 34184 ft | 428 kts | 218° |
| 2026-05-01 14:08 | -22.83136 | -42.13691 | 34191 ft | 421 kts | 243° |
| 2026-05-01 14:08 | -22.85622 | -42.19425 | 34177 ft | 421 kts | 246° |
| 2026-05-01 14:09 | -22.88020 | -42.25178 | 34169 ft | 421 kts | 246° |
| 2026-05-01 14:09 | -22.90451 | -42.30960 | 34166 ft | 421 kts | 246° |
| 2026-05-01 14:10 | -22.92896 | -42.36731 | 34174 ft | 421 kts | 246° |
| 2026-05-01 14:10 | -22.95343 | -42.42497 | 34181 ft | 421 kts | 246° |
| 2026-05-01 14:11 | -22.97788 | -42.48265 | 34175 ft | 421 kts | 246° |
| 2026-05-01 14:11 | -23.01433 | -42.56877 | 34169 ft | 420 kts | 246° |
| 2026-05-01 14:12 | -23.03871 | -42.62647 | 34179 ft | 420 kts | 246° |
| 2026-05-01 14:12 | -23.06308 | -42.68422 | 34166 ft | 421 kts | 246° |
| 2026-05-01 14:13 | -23.08334 | -42.73227 | 34184 ft | 421 kts | 246° |
| 2026-05-01 14:13 | -23.11163 | -42.79945 | 34175 ft | 421 kts | 246° |
| 2026-05-01 14:14 | -23.13592 | -42.85722 | 34177 ft | 420 kts | 247° |
| 2026-05-01 14:14 | -23.16017 | -42.91498 | 34174 ft | 420 kts | 247° |
| 2026-05-01 14:15 | -23.18440 | -42.97276 | 34176 ft | 420 kts | 247° |
| 2026-05-01 14:15 | -23.20842 | -43.03008 | 34179 ft | 419 kts | 247° |
| 2026-05-01 14:16 | -23.23257 | -43.08781 | 34180 ft | 419 kts | 247° |
| 2026-05-01 14:16 | -23.25667 | -43.14549 | 34176 ft | 419 kts | 247° |
| 2026-05-01 14:17 | -23.28073 | -43.20315 | 34177 ft | 418 kts | 247° |
| 2026-05-01 14:17 | -23.30456 | -43.26040 | 34178 ft | 418 kts | 248° |
| 2026-05-01 14:18 | -23.32142 | -43.32068 | 34183 ft | 417 kts | 257° |
| 2026-05-01 14:18 | -23.33304 | -43.37156 | 34203 ft | 417 kts | 257° |
| 2026-05-01 14:19 | -23.34954 | -43.44314 | 34170 ft | 417 kts | 257° |
| 2026-05-01 14:19 | -23.36371 | -43.50394 | 34172 ft | 417 kts | 256° |
| 2026-05-01 14:20 | -23.38510 | -43.59547 | 34177 ft | 416 kts | 256° |
| 2026-05-01 14:21 | -23.39932 | -43.65643 | 34170 ft | 415 kts | 257° |
| 2026-05-01 14:21 | -23.41342 | -43.71699 | 34178 ft | 415 kts | 257° |
| 2026-05-01 14:22 | -23.43464 | -43.80844 | 34186 ft | 416 kts | 257° |
| 2026-05-01 14:22 | -23.44879 | -43.86950 | 34168 ft | 416 kts | 257° |
| 2026-05-01 14:23 | -23.46281 | -43.93018 | 34176 ft | 416 kts | 257° |
| 2026-05-01 14:23 | -23.47691 | -43.99127 | 34175 ft | 416 kts | 257° |
| 2026-05-01 14:24 | -23.49099 | -44.05242 | 34166 ft | 416 kts | 257° |
| 2026-05-01 14:24 | -23.50505 | -44.11359 | 34176 ft | 417 kts | 257° |
| 2026-05-01 14:25 | -23.51912 | -44.17488 | 34178 ft | 417 kts | 257° |
| 2026-05-01 14:25 | -23.53312 | -44.23588 | 34170 ft | 418 kts | 257° |
| 2026-05-01 14:26 | -23.55426 | -44.32815 | 34176 ft | 419 kts | 257° |
| 2026-05-01 14:27 | -23.56834 | -44.38978 | 34175 ft | 419 kts | 257° |
| 2026-05-01 14:27 | -23.58233 | -44.45115 | 34170 ft | 420 kts | 257° |
| 2026-05-01 14:28 | -23.60345 | -44.54397 | 34175 ft | 421 kts | 257° |
| 2026-05-01 14:28 | -23.61751 | -44.60595 | 34183 ft | 421 kts | 257° |
| 2026-05-01 14:29 | -23.63156 | -44.66799 | 34174 ft | 421 kts | 257° |
| 2026-05-01 14:30 | -23.65947 | -44.79158 | 34177 ft | 421 kts | 257° |
| 2026-05-01 14:31 | -23.68038 | -44.88452 | 34081 ft | 422 kts | 258° |
| 2026-05-01 14:31 | -23.68727 | -44.91520 | 33729 ft | 419 kts | 257° |
| 2026-05-01 14:31 | -23.69415 | -44.94588 | 33282 ft | 414 kts | 257° |
| 2026-05-01 14:31 | -23.70094 | -44.97614 | 32864 ft | 409 kts | 258° |
| 2026-05-01 14:32 | -23.70766 | -45.00614 | 32413 ft | 405 kts | 257° |
| 2026-05-01 14:32 | -23.71430 | -45.03585 | 31976 ft | 402 kts | 257° |
| 2026-05-01 14:32 | -23.72089 | -45.06534 | 31541 ft | 398 kts | 257° |
| 2026-05-01 14:32 | -23.72742 | -45.09458 | 31114 ft | 395 kts | 257° |
| 2026-05-01 14:33 | -23.73390 | -45.12365 | 30686 ft | 393 kts | 257° |
| 2026-05-01 14:33 | -23.74033 | -45.15253 | 30255 ft | 391 kts | 257° |
| 2026-05-01 14:33 | -23.74672 | -45.18123 | 29743 ft | 388 kts | 257° |
| 2026-05-01 14:33 | -23.75298 | -45.20935 | 29294 ft | 385 kts | 257° |
| 2026-05-01 14:34 | -23.75926 | -45.23761 | 28843 ft | 381 kts | 257° |
| 2026-05-01 14:34 | -23.76550 | -45.26563 | 28392 ft | 378 kts | 257° |
| 2026-05-01 14:34 | -23.77169 | -45.29344 | 27963 ft | 375 kts | 257° |
| 2026-05-01 14:34 | -23.77783 | -45.32103 | 27539 ft | 373 kts | 257° |
| 2026-05-01 14:35 | -23.78393 | -45.34845 | 27121 ft | 371 kts | 257° |
| 2026-05-01 14:35 | -23.79000 | -45.37575 | 26694 ft | 369 kts | 257° |
| 2026-05-01 14:35 | -23.79590 | -45.40295 | 26271 ft | 367 kts | 260° |
| 2026-05-01 14:35 | -23.79896 | -45.43007 | 25911 ft | 363 kts | 267° |
| 2026-05-01 14:36 | -23.80038 | -45.45761 | 25570 ft | 365 kts | 268° |
| 2026-05-01 14:36 | -23.80168 | -45.48563 | 25218 ft | 373 kts | 268° |
| 2026-05-01 14:36 | -23.80301 | -45.51417 | 24846 ft | 377 kts | 268° |
| 2026-05-01 14:36 | -23.80437 | -45.54272 | 24469 ft | 376 kts | 268° |
| 2026-05-01 14:37 | -23.80576 | -45.57117 | 24101 ft | 375 kts | 268° |
| 2026-05-01 14:37 | -23.80718 | -45.59955 | 23733 ft | 373 kts | 268° |
| 2026-05-01 14:37 | -23.80861 | -45.62781 | 23327 ft | 372 kts | 268° |
| 2026-05-01 14:37 | -23.81003 | -45.65584 | 22951 ft | 369 kts | 268° |
| 2026-05-01 14:38 | -23.81144 | -45.68370 | 22587 ft | 366 kts | 268° |
| 2026-05-01 14:38 | -23.81282 | -45.71094 | 22234 ft | 363 kts | 268° |
| 2026-05-01 14:38 | -23.81421 | -45.73841 | 21885 ft | 361 kts | 268° |
| 2026-05-01 14:38 | -23.81559 | -45.76567 | 21540 ft | 359 kts | 268° |
| 2026-05-01 14:39 | -23.81695 | -45.79275 | 21205 ft | 357 kts | 268° |
| 2026-05-01 14:39 | -23.81830 | -45.81973 | 20861 ft | 355 kts | 268° |
| 2026-05-01 14:39 | -23.81964 | -45.84658 | 20524 ft | 354 kts | 268° |
| 2026-05-01 14:39 | -23.82095 | -45.87301 | 20192 ft | 352 kts | 268° |
| 2026-05-01 14:40 | -23.82227 | -45.89966 | 19860 ft | 351 kts | 268° |
| 2026-05-01 14:40 | -23.82358 | -45.92628 | 19509 ft | 351 kts | 267° |
| 2026-05-01 14:40 | -23.82489 | -45.95285 | 19168 ft | 350 kts | 267° |
| 2026-05-01 14:40 | -23.82619 | -45.97934 | 18832 ft | 349 kts | 268° |
| 2026-05-01 14:41 | -23.82748 | -46.00579 | 18468 ft | 349 kts | 268° |
| 2026-05-01 14:41 | -23.82876 | -46.03216 | 18107 ft | 347 kts | 267° |
| 2026-05-01 14:41 | -23.83003 | -46.05835 | 17760 ft | 344 kts | 267° |
| 2026-05-01 14:41 | -23.83129 | -46.08440 | 17414 ft | 342 kts | 267° |
| 2026-05-01 14:42 | -23.83254 | -46.11026 | 17085 ft | 340 kts | 267° |
| 2026-05-01 14:42 | -23.83376 | -46.13566 | 16768 ft | 339 kts | 267° |
| 2026-05-01 14:42 | -23.83498 | -46.16134 | 16438 ft | 338 kts | 267° |
| 2026-05-01 14:42 | -23.83620 | -46.18688 | 16114 ft | 337 kts | 267° |
| 2026-05-01 14:43 | -23.83741 | -46.21238 | 15779 ft | 335 kts | 267° |
| 2026-05-01 14:43 | -23.83861 | -46.23772 | 15475 ft | 333 kts | 267° |
| 2026-05-01 14:43 | -23.83980 | -46.26301 | 15167 ft | 333 kts | 267° |
| 2026-05-01 14:43 | -23.84099 | -46.28821 | 14836 ft | 332 kts | 267° |
| 2026-05-01 14:44 | -23.84217 | -46.31345 | 14505 ft | 333 kts | 267° |
| 2026-05-01 14:44 | -23.84451 | -46.36362 | 13853 ft | 334 kts | 267° |
| 2026-05-01 14:44 | -23.84568 | -46.38875 | 13536 ft | 329 kts | 267° |
| 2026-05-01 14:45 | -23.84682 | -46.41356 | 13211 ft | 325 kts | 267° |
| 2026-05-01 14:45 | -23.84906 | -46.46231 | 12574 ft | 318 kts | 267° |
| 2026-05-01 14:45 | -23.85016 | -46.48634 | 12274 ft | 316 kts | 267° |
| 2026-05-01 14:46 | -23.85125 | -46.51029 | 11976 ft | 315 kts | 267° |
| 2026-05-01 14:46 | -23.85341 | -46.55771 | 11379 ft | 314 kts | 267° |
| 2026-05-01 14:46 | -23.85448 | -46.58146 | 11079 ft | 311 kts | 268° |
| 2026-05-01 14:47 | -23.85436 | -46.60493 | 10755 ft | 308 kts | 281° |
| 2026-05-01 14:47 | -23.84647 | -46.62634 | 10490 ft | 304 kts | 303° |
| 2026-05-01 14:47 | -23.83233 | -46.64305 | 10261 ft | 299 kts | 323° |
| 2026-05-01 14:48 | -23.79788 | -46.66714 | 9782 ft | 289 kts | 327° |
| 2026-05-01 14:48 | -23.78099 | -46.67864 | 9531 ft | 282 kts | 327° |
| 2026-05-01 14:48 | -23.74875 | -46.70079 | 9040 ft | 271 kts | 327° |
| 2026-05-01 14:49 | -23.71745 | -46.72249 | 8547 ft | 264 kts | 327° |
| 2026-05-01 14:49 | -23.68692 | -46.74366 | 8051 ft | 255 kts | 327° |
| 2026-05-01 14:50 | -23.66710 | -46.75741 | 7725 ft | 249 kts | 328° |
| 2026-05-01 14:50 | -23.62898 | -46.78381 | 7032 ft | 240 kts | 328° |
| 2026-05-01 14:51 | -23.61494 | -46.79353 | 6744 ft | 238 kts | 328° |
| 2026-05-01 14:51 | -23.58699 | -46.81215 | 6156 ft | 235 kts | 339° |
| 2026-05-01 14:52 | -23.56092 | -46.81025 | 5759 ft | 232 kts | 26° |
| 2026-05-01 14:52 | -23.55626 | -46.80722 | 5683 ft | 230 kts | 34° |
| 2026-05-01 14:52 | -23.52934 | -46.76712 | 5037 ft | 206 kts | 55° |
| 2026-05-01 14:53 | -23.52218 | -46.75409 | 4848 ft | 195 kts | 65° |
| 2026-05-01 14:53 | -23.52083 | -46.74025 | 4711 ft | 184 kts | 99° |
| 2026-05-01 14:53 | -23.52622 | -46.72749 | 4680 ft | 191 kts | 128° |
| 2026-05-01 14:53 | -23.53679 | -46.71880 | 4489 ft | 188 kts | 145° |
| 2026-05-01 14:54 | -23.54732 | -46.71137 | 4242 ft | 173 kts | 145° |
| 2026-05-01 14:54 | -23.55702 | -46.70464 | 4061 ft | 158 kts | 145° |
| 2026-05-01 14:54 | -23.56658 | -46.69801 | 3841 ft | 164 kts | 146° |
| 2026-05-01 14:54 | -23.57597 | -46.69152 | 3664 ft | 157 kts | 146° |
| 2026-05-01 14:55 | -23.58502 | -46.68527 | 3468 ft | 152 kts | 145° |
| 2026-05-01 14:55 | -23.59383 | -46.67917 | 3268 ft | 153 kts | 145° |
| 2026-05-01 14:55 | -23.60288 | -46.67294 | 3071 ft | 154 kts | 144° |
| 2026-05-01 14:55 | -23.61193 | -46.66676 | 2838 ft | 153 kts | 142° |
| 2026-05-01 14:56 | -23.62086 | -46.66051 | 2637 ft | 150 kts | 143° |
| 2026-05-01 14:56 | -23.62841 | -46.65523 | 2607 ft | 82 kts | 148° |
| 2026-05-01 14:56 | -23.63072 | -46.65362 | 2609 ft | 21 kts | 158° |
| 2026-05-01 14:56 | -23.63154 | -46.65380 | 2606 ft | 11 kts | 204° |
| 2026-05-01 14:57 | -23.63148 | -46.65455 | 2601 ft | 13 kts | 316° |